sensor_id;sensor_type;location;lat;lon;timestamp;P1;durP1;ratioP1;P2;durP2;ratioP2
30337;SDS011;17143;51.888;5.408;2023-07-16T00:00:32;2.10;;;1.00;;
30337;SDS011;17143;51.888;5.408;2023-07-16T00:15:34;3.70;;;1.00;;
30337;SDS011;17143;51.888;5.408;2023-07-16T00:30:36;2.40;;;1.00;;
30337;SDS011;17143;51.888;5.408;2023-07-16T00:45:38;1.87;;;1.00;;
30337;SDS011;17143;51.888;5.408;2023-07-16T01:00:43;2.87;;;1.30;;
30337;SDS011;17143;51.888;5.408;2023-07-16T01:15:45;2.50;;;1.10;;
30337;SDS011;17143;51.888;5.408;2023-07-16T01:30:47;4.90;;;1.13;;
30337;SDS011;17143;51.888;5.408;2023-07-16T01:45:51;3.67;;;1.37;;
30337;SDS011;17143;51.888;5.408;2023-07-16T02:00:53;1.80;;;1.47;;
30337;SDS011;17143;51.888;5.408;2023-07-16T02:15:55;2.27;;;1.30;;
30337;SDS011;17143;51.888;5.408;2023-07-16T02:30:59;2.43;;;1.60;;
30337;SDS011;17143;51.888;5.408;2023-07-16T02:46:01;5.53;;;1.30;;
30337;SDS011;17143;51.888;5.408;2023-07-16T03:01:03;2.87;;;1.13;;
30337;SDS011;17143;51.888;5.408;2023-07-16T03:16:06;5.97;;;1.30;;
30337;SDS011;17143;51.888;5.408;2023-07-16T03:31:08;3.20;;;1.30;;
30337;SDS011;17143;51.888;5.408;2023-07-16T03:46:12;2.70;;;1.33;;
30337;SDS011;17143;51.888;5.408;2023-07-16T04:01:15;3.17;;;1.70;;
30337;SDS011;17143;51.888;5.408;2023-07-16T04:16:17;6.37;;;1.60;;
30337;SDS011;17143;51.888;5.408;2023-07-16T04:31:19;6.73;;;1.97;;
30337;SDS011;17143;51.888;5.408;2023-07-16T04:46:21;3.77;;;1.87;;
30337;SDS011;17143;51.888;5.408;2023-07-16T05:01:23;2.50;;;1.60;;
30337;SDS011;17143;51.888;5.408;2023-07-16T05:16:25;4.57;;;1.83;;
30337;SDS011;17143;51.888;5.408;2023-07-16T05:31:27;4.07;;;1.80;;
30337;SDS011;17143;51.888;5.408;2023-07-16T05:46:29;4.07;;;1.97;;
30337;SDS011;17143;51.888;5.408;2023-07-16T06:01:31;4.17;;;2.30;;
30337;SDS011;17143;51.888;5.408;2023-07-16T06:16:33;3.70;;;1.90;;
30337;SDS011;17143;51.888;5.408;2023-07-16T06:31:35;12.10;;;2.43;;
30337;SDS011;17143;51.888;5.408;2023-07-16T06:46:37;4.63;;;2.00;;
30337;SDS011;17143;51.888;5.408;2023-07-16T07:01:39;3.07;;;2.37;;
30337;SDS011;17143;51.888;5.408;2023-07-16T07:16:41;4.47;;;2.20;;
30337;SDS011;17143;51.888;5.408;2023-07-16T07:31:43;2.93;;;1.97;;
30337;SDS011;17143;51.888;5.408;2023-07-16T07:46:45;7.93;;;2.10;;
30337;SDS011;17143;51.888;5.408;2023-07-16T08:01:47;5.83;;;2.73;;
30337;SDS011;17143;51.888;5.408;2023-07-16T08:16:49;4.47;;;2.53;;
30337;SDS011;17143;51.888;5.408;2023-07-16T08:31:51;7.07;;;2.50;;
30337;SDS011;17143;51.888;5.408;2023-07-16T08:46:54;5.53;;;2.33;;
30337;SDS011;17143;51.888;5.408;2023-07-16T09:01:56;5.17;;;2.27;;
30337;SDS011;17143;51.888;5.408;2023-07-16T09:16:58;7.40;;;2.37;;
30337;SDS011;17143;51.888;5.408;2023-07-16T09:32:00;3.87;;;2.17;;
30337;SDS011;17143;51.888;5.408;2023-07-16T09:47:03;5.60;;;2.53;;
30337;SDS011;17143;51.888;5.408;2023-07-16T10:02:06;4.13;;;2.47;;
30337;SDS011;17143;51.888;5.408;2023-07-16T10:17:11;5.23;;;2.57;;
30337;SDS011;17143;51.888;5.408;2023-07-16T10:32:14;7.07;;;2.80;;
30337;SDS011;17143;51.888;5.408;2023-07-16T10:47:19;4.20;;;2.37;;
30337;SDS011;17143;51.888;5.408;2023-07-16T11:02:24;3.67;;;2.10;;
30337;SDS011;17143;51.888;5.408;2023-07-16T11:17:27;5.83;;;2.40;;
30337;SDS011;17143;51.888;5.408;2023-07-16T11:32:31;4.10;;;2.03;;
30337;SDS011;17143;51.888;5.408;2023-07-16T11:47:34;2.87;;;1.83;;
30337;SDS011;17143;51.888;5.408;2023-07-16T12:02:36;4.47;;;2.33;;
30337;SDS011;17143;51.888;5.408;2023-07-16T12:17:38;7.17;;;2.63;;
30337;SDS011;17143;51.888;5.408;2023-07-16T12:32:40;3.47;;;2.10;;
30337;SDS011;17143;51.888;5.408;2023-07-16T12:47:42;3.90;;;2.20;;
30337;SDS011;17143;51.888;5.408;2023-07-16T13:02:44;4.03;;;2.30;;
30337;SDS011;17143;51.888;5.408;2023-07-16T13:17:46;2.37;;;1.70;;
30337;SDS011;17143;51.888;5.408;2023-07-16T13:32:48;2.43;;;1.57;;
30337;SDS011;17143;51.888;5.408;2023-07-16T13:47:50;2.67;;;0.90;;
30337;SDS011;17143;51.888;5.408;2023-07-16T14:02:52;0.87;;;0.87;;
30337;SDS011;17143;51.888;5.408;2023-07-16T14:17:54;1.23;;;0.90;;
30337;SDS011;17143;51.888;5.408;2023-07-16T14:32:56;2.57;;;0.90;;
30337;SDS011;17143;51.888;5.408;2023-07-16T14:47:58;1.27;;;0.90;;
30337;SDS011;17143;51.888;5.408;2023-07-16T15:03:00;3.03;;;1.20;;
30337;SDS011;17143;51.888;5.408;2023-07-16T15:18:02;1.97;;;1.00;;
30337;SDS011;17143;51.888;5.408;2023-07-16T15:33:04;2.10;;;1.27;;
30337;SDS011;17143;51.888;5.408;2023-07-16T15:48:07;2.17;;;1.20;;
30337;SDS011;17143;51.888;5.408;2023-07-16T16:03:09;3.60;;;1.40;;
30337;SDS011;17143;51.888;5.408;2023-07-16T16:18:11;1.23;;;1.00;;
30337;SDS011;17143;51.888;5.408;2023-07-16T16:33:14;2.80;;;1.20;;
30337;SDS011;17143;51.888;5.408;2023-07-16T16:48:16;1.63;;;0.80;;
30337;SDS011;17143;51.888;5.408;2023-07-16T17:03:18;1.53;;;0.93;;
30337;SDS011;17143;51.888;5.408;2023-07-16T17:18:20;1.43;;;1.20;;
30337;SDS011;17143;51.888;5.408;2023-07-16T17:33:23;1.73;;;1.20;;
30337;SDS011;17143;51.888;5.408;2023-07-16T17:48:25;3.40;;;1.27;;
30337;SDS011;17143;51.888;5.408;2023-07-16T18:03:27;3.00;;;1.10;;
30337;SDS011;17143;51.888;5.408;2023-07-16T18:18:29;1.97;;;0.90;;
30337;SDS011;17143;51.888;5.408;2023-07-16T18:33:31;2.00;;;0.80;;
30337;SDS011;17143;51.888;5.408;2023-07-16T18:48:33;2.37;;;0.70;;
30337;SDS011;17143;51.888;5.408;2023-07-16T19:03:35;1.50;;;0.77;;
30337;SDS011;17143;51.888;5.408;2023-07-16T19:18:37;0.50;;;0.50;;
30337;SDS011;17143;51.888;5.408;2023-07-16T19:33:40;1.63;;;0.77;;
30337;SDS011;17143;51.888;5.408;2023-07-16T19:48:42;1.70;;;0.80;;
30337;SDS011;17143;51.888;5.408;2023-07-16T20:03:44;1.57;;;0.90;;
30337;SDS011;17143;51.888;5.408;2023-07-16T20:18:46;0.93;;;0.67;;
30337;SDS011;17143;51.888;5.408;2023-07-16T20:33:48;1.87;;;0.70;;
30337;SDS011;17143;51.888;5.408;2023-07-16T20:48:50;0.97;;;0.80;;
30337;SDS011;17143;51.888;5.408;2023-07-16T21:03:52;1.00;;;0.70;;
30337;SDS011;17143;51.888;5.408;2023-07-16T21:18:54;2.37;;;0.83;;
30337;SDS011;17143;51.888;5.408;2023-07-16T21:33:56;2.97;;;0.80;;
30337;SDS011;17143;51.888;5.408;2023-07-16T21:48:58;1.77;;;1.07;;
30337;SDS011;17143;51.888;5.408;2023-07-16T22:04:00;1.47;;;0.97;;
30337;SDS011;17143;51.888;5.408;2023-07-16T22:19:03;3.03;;;0.80;;
30337;SDS011;17143;51.888;5.408;2023-07-16T22:34:07;4.30;;;0.80;;
30337;SDS011;17143;51.888;5.408;2023-07-16T22:49:09;2.00;;;0.90;;
30337;SDS011;17143;51.888;5.408;2023-07-16T23:04:11;1.83;;;0.80;;
30337;SDS011;17143;51.888;5.408;2023-07-16T23:19:13;2.70;;;1.00;;
30337;SDS011;17143;51.888;5.408;2023-07-16T23:34:15;1.23;;;0.90;;
30337;SDS011;17143;51.888;5.408;2023-07-16T23:49:17;1.50;;;0.90;;
